Gulf Hammock, Florida
Current Conditions -  °F | °C
As of 4:35 PM on Saturday 25 Oct 2014 (Local Time) from KCGC Reporting Station
Clear Clear  
Wind Chill: 77°   Ceiling: Unl
Heat Index: 78°   Visibility: 10mi
Dew Point: 54°   Wind: 8mph
Humidity: 44%   Direction: 270°W
Pressure: 29.96"   Gusts: NA
Location:  29.25°N, 82.73°W
Report Text: KCGC 252035Z AUTO 27007KT 10SM CLR 25/12 A2996 RMK AO2 PWINO
Loading
Personal Weather Stations






























Interactive Weather Map
Tropical Storm Tracking
New forecast layout! Learn more

10-Day Weather Forecast

Advertisements
Track Severe Weather on mobile